sensor_id;sensor_type;location;lat;lon;timestamp;P1;durP1;ratioP1;P2;durP2;ratioP2
14187;SDS011;7175;51.978;5.330;2023-07-20T00:01:54;131.00;;;121.40;;
14187;SDS011;7175;51.978;5.330;2023-07-20T00:04:24;126.63;;;117.03;;
14187;SDS011;7175;51.978;5.330;2023-07-20T00:06:52;125.40;;;115.80;;
14187;SDS011;7175;51.978;5.330;2023-07-20T00:09:20;130.67;;;120.87;;
14187;SDS011;7175;51.978;5.330;2023-07-20T00:11:49;129.27;;;119.37;;
14187;SDS011;7175;51.978;5.330;2023-07-20T00:14:19;129.90;;;119.90;;
14187;SDS011;7175;51.978;5.330;2023-07-20T00:16:47;132.10;;;122.30;;
14187;SDS011;7175;51.978;5.330;2023-07-20T00:19:24;132.73;;;122.83;;
14187;SDS011;7175;51.978;5.330;2023-07-20T00:21:56;131.10;;;121.00;;
14187;SDS011;7175;51.978;5.330;2023-07-20T00:24:24;127.63;;;117.70;;
14187;SDS011;7175;51.978;5.330;2023-07-20T00:26:52;129.40;;;119.30;;
14187;SDS011;7175;51.978;5.330;2023-07-20T00:29:21;128.00;;;118.00;;
14187;SDS011;7175;51.978;5.330;2023-07-20T00:31:49;131.90;;;121.70;;
14187;SDS011;7175;51.978;5.330;2023-07-20T00:34:17;129.50;;;119.40;;
14187;SDS011;7175;51.978;5.330;2023-07-20T00:36:47;128.57;;;118.57;;
14187;SDS011;7175;51.978;5.330;2023-07-20T00:39:16;128.77;;;118.67;;
14187;SDS011;7175;51.978;5.330;2023-07-20T00:41:44;125.10;;;115.10;;
14187;SDS011;7175;51.978;5.330;2023-07-20T00:44:16;127.70;;;117.60;;
14187;SDS011;7175;51.978;5.330;2023-07-20T00:46:44;126.27;;;116.20;;
14187;SDS011;7175;51.978;5.330;2023-07-20T00:49:13;127.80;;;117.60;;
14187;SDS011;7175;51.978;5.330;2023-07-20T00:51:41;128.00;;;117.80;;
14187;SDS011;7175;51.978;5.330;2023-07-20T00:54:11;128.20;;;118.00;;
14187;SDS011;7175;51.978;5.330;2023-07-20T00:56:41;126.67;;;116.73;;
14187;SDS011;7175;51.978;5.330;2023-07-20T00:59:09;130.20;;;120.13;;
14187;SDS011;7175;51.978;5.330;2023-07-20T01:01:38;129.77;;;119.67;;
14187;SDS011;7175;51.978;5.330;2023-07-20T01:04:06;127.27;;;117.20;;
14187;SDS011;7175;51.978;5.330;2023-07-20T01:06:36;127.67;;;117.60;;
14187;SDS011;7175;51.978;5.330;2023-07-20T01:09:16;130.80;;;120.63;;
14187;SDS011;7175;51.978;5.330;2023-07-20T01:11:49;130.20;;;120.07;;
14187;SDS011;7175;51.978;5.330;2023-07-20T01:14:26;128.93;;;118.77;;
14187;SDS011;7175;51.978;5.330;2023-07-20T01:16:55;129.77;;;119.57;;
14187;SDS011;7175;51.978;5.330;2023-07-20T01:19:23;131.67;;;121.50;;
14187;SDS011;7175;51.978;5.330;2023-07-20T01:21:53;128.80;;;118.80;;
14187;SDS011;7175;51.978;5.330;2023-07-20T01:24:35;133.07;;;122.70;;
14187;SDS011;7175;51.978;5.330;2023-07-20T01:27:25;128.67;;;118.40;;
14187;SDS011;7175;51.978;5.330;2023-07-20T01:30:10;129.03;;;118.87;;
14187;SDS011;7175;51.978;5.330;2023-07-20T01:32:49;128.67;;;118.57;;
14187;SDS011;7175;51.978;5.330;2023-07-20T01:35:20;130.40;;;120.20;;
14187;SDS011;7175;51.978;5.330;2023-07-20T01:37:54;128.73;;;118.60;;
14187;SDS011;7175;51.978;5.330;2023-07-20T01:40:24;129.13;;;118.93;;
14187;SDS011;7175;51.978;5.330;2023-07-20T01:42:53;133.17;;;122.80;;
14187;SDS011;7175;51.978;5.330;2023-07-20T01:45:21;133.80;;;123.33;;
14187;SDS011;7175;51.978;5.330;2023-07-20T01:47:51;130.00;;;119.50;;
14187;SDS011;7175;51.978;5.330;2023-07-20T01:50:19;129.10;;;118.50;;
14187;SDS011;7175;51.978;5.330;2023-07-20T01:52:47;130.90;;;120.30;;
14187;SDS011;7175;51.978;5.330;2023-07-20T01:55:32;131.37;;;120.57;;
14187;SDS011;7175;51.978;5.330;2023-07-20T01:58:00;132.13;;;121.33;;
14187;SDS011;7175;51.978;5.330;2023-07-20T02:00:30;131.40;;;120.70;;
14187;SDS011;7175;51.978;5.330;2023-07-20T02:02:58;131.83;;;121.00;;
14187;SDS011;7175;51.978;5.330;2023-07-20T02:05:26;133.23;;;122.43;;
14187;SDS011;7175;51.978;5.330;2023-07-20T02:07:54;135.03;;;124.17;;
14187;SDS011;7175;51.978;5.330;2023-07-20T02:10:22;135.57;;;124.63;;
14187;SDS011;7175;51.978;5.330;2023-07-20T02:12:52;132.70;;;121.70;;
14187;SDS011;7175;51.978;5.330;2023-07-20T02:15:20;132.53;;;121.40;;
14187;SDS011;7175;51.978;5.330;2023-07-20T02:17:49;133.37;;;122.30;;
14187;SDS011;7175;51.978;5.330;2023-07-20T02:20:17;134.13;;;122.93;;
14187;SDS011;7175;51.978;5.330;2023-07-20T02:22:46;134.63;;;123.47;;
14187;SDS011;7175;51.978;5.330;2023-07-20T02:25:16;135.07;;;123.87;;
14187;SDS011;7175;51.978;5.330;2023-07-20T02:27:44;137.40;;;126.20;;
14187;SDS011;7175;51.978;5.330;2023-07-20T02:30:14;140.07;;;128.87;;
14187;SDS011;7175;51.978;5.330;2023-07-20T02:32:43;137.47;;;126.30;;
14187;SDS011;7175;51.978;5.330;2023-07-20T02:35:12;135.77;;;124.57;;
14187;SDS011;7175;51.978;5.330;2023-07-20T02:37:40;134.70;;;123.33;;
14187;SDS011;7175;51.978;5.330;2023-07-20T02:40:09;136.63;;;125.27;;
14187;SDS011;7175;51.978;5.330;2023-07-20T02:42:38;135.47;;;124.13;;
14187;SDS011;7175;51.978;5.330;2023-07-20T02:45:07;134.17;;;122.70;;
14187;SDS011;7175;51.978;5.330;2023-07-20T02:47:37;135.57;;;124.07;;
14187;SDS011;7175;51.978;5.330;2023-07-20T02:50:06;135.20;;;123.60;;
14187;SDS011;7175;51.978;5.330;2023-07-20T02:52:38;140.00;;;128.40;;
14187;SDS011;7175;51.978;5.330;2023-07-20T02:55:06;137.60;;;126.00;;
14187;SDS011;7175;51.978;5.330;2023-07-20T02:57:36;135.70;;;124.10;;
14187;SDS011;7175;51.978;5.330;2023-07-20T03:00:04;135.77;;;124.20;;
14187;SDS011;7175;51.978;5.330;2023-07-20T03:02:37;135.17;;;123.60;;
14187;SDS011;7175;51.978;5.330;2023-07-20T03:05:06;136.13;;;124.57;;
14187;SDS011;7175;51.978;5.330;2023-07-20T03:07:35;138.63;;;126.87;;
14187;SDS011;7175;51.978;5.330;2023-07-20T03:10:04;139.10;;;127.30;;
14187;SDS011;7175;51.978;5.330;2023-07-20T03:12:35;137.43;;;125.83;;
14187;SDS011;7175;51.978;5.330;2023-07-20T03:15:04;138.07;;;126.40;;
14187;SDS011;7175;51.978;5.330;2023-07-20T03:17:33;140.53;;;128.93;;
14187;SDS011;7175;51.978;5.330;2023-07-20T03:20:03;140.80;;;129.10;;
14187;SDS011;7175;51.978;5.330;2023-07-20T03:22:35;138.87;;;127.03;;
14187;SDS011;7175;51.978;5.330;2023-07-20T03:25:04;136.97;;;125.07;;
14187;SDS011;7175;51.978;5.330;2023-07-20T03:27:33;135.77;;;123.87;;
14187;SDS011;7175;51.978;5.330;2023-07-20T03:30:01;149.87;;;137.57;;
14187;SDS011;7175;51.978;5.330;2023-07-20T03:32:29;150.60;;;138.20;;
14187;SDS011;7175;51.978;5.330;2023-07-20T03:35:00;151.13;;;139.10;;
14187;SDS011;7175;51.978;5.330;2023-07-20T03:37:30;152.97;;;140.80;;
14187;SDS011;7175;51.978;5.330;2023-07-20T03:40:00;152.10;;;140.00;;
14187;SDS011;7175;51.978;5.330;2023-07-20T03:42:29;151.17;;;139.37;;
14187;SDS011;7175;51.978;5.330;2023-07-20T03:44:57;153.33;;;141.40;;
14187;SDS011;7175;51.978;5.330;2023-07-20T03:47:25;155.17;;;143.17;;
14187;SDS011;7175;51.978;5.330;2023-07-20T03:49:53;153.90;;;142.07;;
14187;SDS011;7175;51.978;5.330;2023-07-20T03:52:22;155.27;;;143.47;;
14187;SDS011;7175;51.978;5.330;2023-07-20T03:54:51;152.77;;;140.87;;
14187;SDS011;7175;51.978;5.330;2023-07-20T03:57:19;158.40;;;146.20;;
14187;SDS011;7175;51.978;5.330;2023-07-20T03:59:48;154.73;;;142.80;;
14187;SDS011;7175;51.978;5.330;2023-07-20T04:02:16;151.57;;;139.47;;
14187;SDS011;7175;51.978;5.330;2023-07-20T04:04:47;150.20;;;137.93;;
14187;SDS011;7175;51.978;5.330;2023-07-20T04:07:16;151.37;;;139.17;;
14187;SDS011;7175;51.978;5.330;2023-07-20T04:09:46;153.30;;;140.83;;
14187;SDS011;7175;51.978;5.330;2023-07-20T04:12:17;156.00;;;143.80;;
14187;SDS011;7175;51.978;5.330;2023-07-20T04:14:48;153.43;;;141.00;;
14187;SDS011;7175;51.978;5.330;2023-07-20T04:17:18;154.03;;;141.73;;
14187;SDS011;7175;51.978;5.330;2023-07-20T04:19:47;148.07;;;136.00;;
14187;SDS011;7175;51.978;5.330;2023-07-20T04:22:15;149.30;;;137.07;;
14187;SDS011;7175;51.978;5.330;2023-07-20T04:24:44;146.90;;;134.80;;
14187;SDS011;7175;51.978;5.330;2023-07-20T04:27:12;147.50;;;135.10;;
14187;SDS011;7175;51.978;5.330;2023-07-20T04:29:42;144.37;;;132.20;;
14187;SDS011;7175;51.978;5.330;2023-07-20T04:32:10;145.67;;;133.37;;
14187;SDS011;7175;51.978;5.330;2023-07-20T04:34:40;142.30;;;129.90;;
14187;SDS011;7175;51.978;5.330;2023-07-20T04:37:08;146.10;;;133.57;;
14187;SDS011;7175;51.978;5.330;2023-07-20T04:39:39;143.73;;;131.27;;
14187;SDS011;7175;51.978;5.330;2023-07-20T04:42:07;147.80;;;135.10;;
14187;SDS011;7175;51.978;5.330;2023-07-20T04:44:36;149.50;;;136.80;;
14187;SDS011;7175;51.978;5.330;2023-07-20T04:47:06;152.57;;;139.67;;
14187;SDS011;7175;51.978;5.330;2023-07-20T04:49:34;153.30;;;140.50;;
14187;SDS011;7175;51.978;5.330;2023-07-20T04:52:03;159.70;;;146.43;;
14187;SDS011;7175;51.978;5.330;2023-07-20T04:54:32;157.97;;;144.53;;
14187;SDS011;7175;51.978;5.330;2023-07-20T04:57:00;170.93;;;157.17;;
14187;SDS011;7175;51.978;5.330;2023-07-20T04:59:28;168.70;;;154.97;;
14187;SDS011;7175;51.978;5.330;2023-07-20T05:01:56;164.33;;;150.57;;
14187;SDS011;7175;51.978;5.330;2023-07-20T05:04:26;165.00;;;151.50;;
14187;SDS011;7175;51.978;5.330;2023-07-20T05:07:04;165.17;;;151.57;;
14187;SDS011;7175;51.978;5.330;2023-07-20T05:09:33;160.70;;;147.00;;
14187;SDS011;7175;51.978;5.330;2023-07-20T05:12:01;153.77;;;140.70;;
14187;SDS011;7175;51.978;5.330;2023-07-20T05:14:33;153.33;;;140.27;;
14187;SDS011;7175;51.978;5.330;2023-07-20T05:17:04;161.10;;;147.60;;
14187;SDS011;7175;51.978;5.330;2023-07-20T05:19:34;161.17;;;147.77;;
14187;SDS011;7175;51.978;5.330;2023-07-20T05:22:13;166.33;;;152.50;;
14187;SDS011;7175;51.978;5.330;2023-07-20T05:24:42;164.27;;;150.70;;
14187;SDS011;7175;51.978;5.330;2023-07-20T05:27:10;168.77;;;154.90;;
14187;SDS011;7175;51.978;5.330;2023-07-20T05:29:42;171.50;;;157.53;;
14187;SDS011;7175;51.978;5.330;2023-07-20T05:32:12;166.03;;;152.40;;
14187;SDS011;7175;51.978;5.330;2023-07-20T05:34:43;164.47;;;150.80;;
14187;SDS011;7175;51.978;5.330;2023-07-20T05:37:11;167.23;;;153.37;;
14187;SDS011;7175;51.978;5.330;2023-07-20T05:39:40;171.10;;;157.40;;
14187;SDS011;7175;51.978;5.330;2023-07-20T05:42:08;176.40;;;162.30;;
14187;SDS011;7175;51.978;5.330;2023-07-20T05:44:40;178.47;;;164.37;;
14187;SDS011;7175;51.978;5.330;2023-07-20T05:47:08;181.90;;;167.87;;
14187;SDS011;7175;51.978;5.330;2023-07-20T05:49:37;180.93;;;166.87;;
14187;SDS011;7175;51.978;5.330;2023-07-20T05:52:07;187.57;;;173.27;;
14187;SDS011;7175;51.978;5.330;2023-07-20T05:54:35;188.43;;;174.10;;
14187;SDS011;7175;51.978;5.330;2023-07-20T05:57:04;179.90;;;165.83;;
14187;SDS011;7175;51.978;5.330;2023-07-20T05:59:32;170.63;;;156.90;;
14187;SDS011;7175;51.978;5.330;2023-07-20T06:02:01;175.93;;;162.13;;
14187;SDS011;7175;51.978;5.330;2023-07-20T06:04:29;169.47;;;155.97;;
14187;SDS011;7175;51.978;5.330;2023-07-20T06:06:57;171.23;;;157.77;;
14187;SDS011;7175;51.978;5.330;2023-07-20T06:09:28;161.77;;;148.70;;
14187;SDS011;7175;51.978;5.330;2023-07-20T06:11:58;158.83;;;145.83;;
14187;SDS011;7175;51.978;5.330;2023-07-20T06:14:28;159.83;;;146.90;;
14187;SDS011;7175;51.978;5.330;2023-07-20T06:16:56;161.30;;;148.37;;
14187;SDS011;7175;51.978;5.330;2023-07-20T06:19:24;160.73;;;147.83;;
14187;SDS011;7175;51.978;5.330;2023-07-20T06:21:52;155.30;;;142.50;;
14187;SDS011;7175;51.978;5.330;2023-07-20T06:24:21;153.70;;;141.07;;
14187;SDS011;7175;51.978;5.330;2023-07-20T06:26:50;155.73;;;142.83;;
14187;SDS011;7175;51.978;5.330;2023-07-20T06:29:23;158.27;;;145.33;;
14187;SDS011;7175;51.978;5.330;2023-07-20T06:31:51;156.37;;;143.50;;
14187;SDS011;7175;51.978;5.330;2023-07-20T06:34:19;155.80;;;143.10;;
14187;SDS011;7175;51.978;5.330;2023-07-20T06:36:49;151.87;;;139.30;;
14187;SDS011;7175;51.978;5.330;2023-07-20T06:39:18;151.63;;;139.07;;
14187;SDS011;7175;51.978;5.330;2023-07-20T06:41:53;148.57;;;136.13;;
14187;SDS011;7175;51.978;5.330;2023-07-20T06:44:22;143.70;;;131.50;;
14187;SDS011;7175;51.978;5.330;2023-07-20T06:46:54;142.60;;;131.00;;
14187;SDS011;7175;51.978;5.330;2023-07-20T06:49:26;143.07;;;131.43;;
14187;SDS011;7175;51.978;5.330;2023-07-20T06:51:55;143.40;;;131.70;;
14187;SDS011;7175;51.978;5.330;2023-07-20T06:54:24;146.30;;;134.47;;
14187;SDS011;7175;51.978;5.330;2023-07-20T06:56:55;146.30;;;134.50;;
14187;SDS011;7175;51.978;5.330;2023-07-20T06:59:27;145.17;;;133.33;;
14187;SDS011;7175;51.978;5.330;2023-07-20T07:01:56;144.40;;;132.80;;
14187;SDS011;7175;51.978;5.330;2023-07-20T07:04:25;141.20;;;130.20;;
14187;SDS011;7175;51.978;5.330;2023-07-20T07:06:53;138.87;;;128.43;;
14187;SDS011;7175;51.978;5.330;2023-07-20T07:09:22;140.17;;;129.87;;
14187;SDS011;7175;51.978;5.330;2023-07-20T07:11:50;137.30;;;127.67;;
14187;SDS011;7175;51.978;5.330;2023-07-20T07:14:21;135.80;;;126.50;;
14187;SDS011;7175;51.978;5.330;2023-07-20T07:16:53;136.17;;;126.97;;
14187;SDS011;7175;51.978;5.330;2023-07-20T07:19:24;133.73;;;124.97;;
14187;SDS011;7175;51.978;5.330;2023-07-20T07:21:52;134.53;;;125.83;;
14187;SDS011;7175;51.978;5.330;2023-07-20T07:24:26;127.50;;;119.70;;
14187;SDS011;7175;51.978;5.330;2023-07-20T07:27:00;98.97;;;93.37;;
14187;SDS011;7175;51.978;5.330;2023-07-20T07:29:31;90.97;;;85.67;;
14187;SDS011;7175;51.978;5.330;2023-07-20T07:32:00;85.37;;;80.37;;
14187;SDS011;7175;51.978;5.330;2023-07-20T07:34:28;61.00;;;57.10;;
14187;SDS011;7175;51.978;5.330;2023-07-20T07:36:59;58.17;;;54.40;;
14187;SDS011;7175;51.978;5.330;2023-07-20T07:39:27;55.03;;;51.43;;
14187;SDS011;7175;51.978;5.330;2023-07-20T07:41:59;46.13;;;43.03;;
14187;SDS011;7175;51.978;5.330;2023-07-20T07:44:27;32.70;;;30.30;;
14187;SDS011;7175;51.978;5.330;2023-07-20T07:46:57;29.30;;;27.10;;
14187;SDS011;7175;51.978;5.330;2023-07-20T07:49:27;27.70;;;25.60;;
14187;SDS011;7175;51.978;5.330;2023-07-20T07:51:55;26.47;;;24.37;;
14187;SDS011;7175;51.978;5.330;2023-07-20T07:54:24;26.57;;;24.47;;
14187;SDS011;7175;51.978;5.330;2023-07-20T07:56:53;27.07;;;24.97;;
14187;SDS011;7175;51.978;5.330;2023-07-20T07:59:21;28.17;;;25.97;;
14187;SDS011;7175;51.978;5.330;2023-07-20T08:01:50;26.60;;;24.50;;
14187;SDS011;7175;51.978;5.330;2023-07-20T08:04:20;25.50;;;23.50;;
14187;SDS011;7175;51.978;5.330;2023-07-20T08:06:48;24.67;;;22.67;;
14187;SDS011;7175;51.978;5.330;2023-07-20T08:09:16;23.70;;;21.80;;
14187;SDS011;7175;51.978;5.330;2023-07-20T08:11:44;23.77;;;21.87;;
14187;SDS011;7175;51.978;5.330;2023-07-20T08:14:14;23.77;;;21.87;;
14187;SDS011;7175;51.978;5.330;2023-07-20T08:16:42;23.67;;;21.77;;
14187;SDS011;7175;51.978;5.330;2023-07-20T08:19:12;23.43;;;21.53;;
14187;SDS011;7175;51.978;5.330;2023-07-20T08:21:42;23.97;;;22.07;;
14187;SDS011;7175;51.978;5.330;2023-07-20T08:24:10;23.73;;;21.83;;
14187;SDS011;7175;51.978;5.330;2023-07-20T08:26:43;23.83;;;21.93;;
14187;SDS011;7175;51.978;5.330;2023-07-20T08:29:11;23.80;;;22.00;;
14187;SDS011;7175;51.978;5.330;2023-07-20T08:31:40;23.27;;;21.47;;
14187;SDS011;7175;51.978;5.330;2023-07-20T08:34:08;24.27;;;22.37;;
14187;SDS011;7175;51.978;5.330;2023-07-20T08:36:51;24.47;;;22.57;;
14187;SDS011;7175;51.978;5.330;2023-07-20T08:39:19;23.73;;;21.83;;
14187;SDS011;7175;51.978;5.330;2023-07-20T08:41:48;23.73;;;21.83;;
14187;SDS011;7175;51.978;5.330;2023-07-20T08:44:18;23.87;;;21.97;;
14187;SDS011;7175;51.978;5.330;2023-07-20T08:46:46;23.03;;;21.13;;
14187;SDS011;7175;51.978;5.330;2023-07-20T08:49:17;22.90;;;21.00;;
14187;SDS011;7175;51.978;5.330;2023-07-20T08:51:46;23.23;;;21.33;;
14187;SDS011;7175;51.978;5.330;2023-07-20T08:54:17;23.43;;;21.53;;
14187;SDS011;7175;51.978;5.330;2023-07-20T08:56:45;23.37;;;21.47;;
14187;SDS011;7175;51.978;5.330;2023-07-20T08:59:14;22.77;;;20.90;;
14187;SDS011;7175;51.978;5.330;2023-07-20T09:01:48;23.27;;;21.37;;
14187;SDS011;7175;51.978;5.330;2023-07-20T09:04:18;23.20;;;21.40;;
14187;SDS011;7175;51.978;5.330;2023-07-20T09:06:47;23.20;;;21.40;;
14187;SDS011;7175;51.978;5.330;2023-07-20T09:09:18;22.73;;;20.93;;
14187;SDS011;7175;51.978;5.330;2023-07-20T09:11:47;22.60;;;20.80;;
14187;SDS011;7175;51.978;5.330;2023-07-20T09:14:17;22.00;;;20.20;;
14187;SDS011;7175;51.978;5.330;2023-07-20T09:16:48;22.10;;;20.30;;
14187;SDS011;7175;51.978;5.330;2023-07-20T09:19:17;22.27;;;20.47;;
14187;SDS011;7175;51.978;5.330;2023-07-20T09:21:46;21.27;;;19.57;;
14187;SDS011;7175;51.978;5.330;2023-07-20T09:24:17;22.03;;;20.23;;
14187;SDS011;7175;51.978;5.330;2023-07-20T09:26:49;21.80;;;20.00;;
14187;SDS011;7175;51.978;5.330;2023-07-20T09:29:17;21.57;;;19.80;;
14187;SDS011;7175;51.978;5.330;2023-07-20T09:31:58;21.83;;;20.03;;
14187;SDS011;7175;51.978;5.330;2023-07-20T09:34:28;21.57;;;19.77;;
14187;SDS011;7175;51.978;5.330;2023-07-20T09:37:01;21.30;;;19.50;;
14187;SDS011;7175;51.978;5.330;2023-07-20T09:39:32;21.30;;;19.57;;
14187;SDS011;7175;51.978;5.330;2023-07-20T09:42:29;21.47;;;19.67;;
14187;SDS011;7175;51.978;5.330;2023-07-20T09:45:01;21.63;;;19.83;;
14187;SDS011;7175;51.978;5.330;2023-07-20T09:47:29;21.70;;;19.97;;
14187;SDS011;7175;51.978;5.330;2023-07-20T09:49:59;21.87;;;20.10;;
14187;SDS011;7175;51.978;5.330;2023-07-20T09:52:31;22.23;;;20.43;;
14187;SDS011;7175;51.978;5.330;2023-07-20T09:55:04;22.27;;;20.47;;
14187;SDS011;7175;51.978;5.330;2023-07-20T09:57:33;22.40;;;20.60;;
14187;SDS011;7175;51.978;5.330;2023-07-20T10:00:03;22.00;;;20.20;;
14187;SDS011;7175;51.978;5.330;2023-07-20T10:02:41;21.50;;;19.80;;
14187;SDS011;7175;51.978;5.330;2023-07-20T10:05:11;22.00;;;20.20;;
14187;SDS011;7175;51.978;5.330;2023-07-20T10:07:43;21.67;;;19.87;;
14187;SDS011;7175;51.978;5.330;2023-07-20T10:10:38;21.40;;;19.70;;
14187;SDS011;7175;51.978;5.330;2023-07-20T10:13:10;22.00;;;20.20;;
14187;SDS011;7175;51.978;5.330;2023-07-20T10:15:46;21.60;;;19.80;;
14187;SDS011;7175;51.978;5.330;2023-07-20T10:18:18;21.40;;;19.60;;
14187;SDS011;7175;51.978;5.330;2023-07-20T10:20:55;21.30;;;19.50;;
14187;SDS011;7175;51.978;5.330;2023-07-20T10:23:27;21.33;;;19.53;;
14187;SDS011;7175;51.978;5.330;2023-07-20T10:25:58;21.13;;;19.33;;
14187;SDS011;7175;51.978;5.330;2023-07-20T10:28:29;21.27;;;19.47;;
14187;SDS011;7175;51.978;5.330;2023-07-20T10:30:57;21.30;;;19.50;;
14187;SDS011;7175;51.978;5.330;2023-07-20T10:33:25;21.50;;;19.70;;
14187;SDS011;7175;51.978;5.330;2023-07-20T10:35:55;21.47;;;19.67;;
14187;SDS011;7175;51.978;5.330;2023-07-20T10:38:39;21.70;;;19.90;;
14187;SDS011;7175;51.978;5.330;2023-07-20T10:41:19;21.20;;;19.40;;
14187;SDS011;7175;51.978;5.330;2023-07-20T10:43:48;21.27;;;19.47;;
14187;SDS011;7175;51.978;5.330;2023-07-20T10:49:10;21.27;;;19.47;;
14187;SDS011;7175;51.978;5.330;2023-07-20T10:51:41;21.67;;;19.87;;
14187;SDS011;7175;51.978;5.330;2023-07-20T10:54:33;21.43;;;19.63;;
14187;SDS011;7175;51.978;5.330;2023-07-20T11:00:08;22.07;;;20.17;;
14187;SDS011;7175;51.978;5.330;2023-07-20T11:02:42;21.37;;;19.57;;
14187;SDS011;7175;51.978;5.330;2023-07-20T11:07:59;21.00;;;19.20;;
14187;SDS011;7175;51.978;5.330;2023-07-20T11:10:30;20.90;;;19.13;;
14187;SDS011;7175;51.978;5.330;2023-07-20T11:13:30;20.90;;;19.17;;
14187;SDS011;7175;51.978;5.330;2023-07-20T11:16:04;20.37;;;18.67;;
14187;SDS011;7175;51.978;5.330;2023-07-20T11:18:33;20.70;;;19.00;;
14187;SDS011;7175;51.978;5.330;2023-07-20T11:21:10;20.87;;;19.17;;
14187;SDS011;7175;51.978;5.330;2023-07-20T11:23:39;20.23;;;18.57;;
14187;SDS011;7175;51.978;5.330;2023-07-20T11:26:07;20.47;;;18.77;;
14187;SDS011;7175;51.978;5.330;2023-07-20T11:28:37;20.50;;;18.80;;
14187;SDS011;7175;51.978;5.330;2023-07-20T11:31:07;20.70;;;19.00;;
14187;SDS011;7175;51.978;5.330;2023-07-20T11:33:35;20.07;;;18.47;;
14187;SDS011;7175;51.978;5.330;2023-07-20T11:36:06;20.10;;;18.50;;
14187;SDS011;7175;51.978;5.330;2023-07-20T11:38:41;20.20;;;18.57;;
14187;SDS011;7175;51.978;5.330;2023-07-20T11:41:10;21.30;;;19.60;;
14187;SDS011;7175;51.978;5.330;2023-07-20T11:43:40;20.93;;;19.23;;
14187;SDS011;7175;51.978;5.330;2023-07-20T11:46:09;21.23;;;19.53;;
14187;SDS011;7175;51.978;5.330;2023-07-20T11:48:38;22.33;;;20.53;;
14187;SDS011;7175;51.978;5.330;2023-07-20T11:51:13;21.57;;;19.87;;
14187;SDS011;7175;51.978;5.330;2023-07-20T11:53:42;23.03;;;21.23;;
14187;SDS011;7175;51.978;5.330;2023-07-20T11:56:12;22.73;;;20.93;;
14187;SDS011;7175;51.978;5.330;2023-07-20T11:58:46;19.73;;;18.13;;
14187;SDS011;7175;51.978;5.330;2023-07-20T12:01:14;22.33;;;20.63;;
14187;SDS011;7175;51.978;5.330;2023-07-20T12:03:47;19.87;;;18.27;;
14187;SDS011;7175;51.978;5.330;2023-07-20T12:06:17;20.10;;;18.40;;
14187;SDS011;7175;51.978;5.330;2023-07-20T12:08:45;22.70;;;20.90;;
14187;SDS011;7175;51.978;5.330;2023-07-20T12:11:14;20.50;;;18.80;;
14187;SDS011;7175;51.978;5.330;2023-07-20T12:14:10;20.40;;;18.70;;
14187;SDS011;7175;51.978;5.330;2023-07-20T12:16:43;20.70;;;19.00;;
14187;SDS011;7175;51.978;5.330;2023-07-20T12:19:12;20.57;;;18.97;;
14187;SDS011;7175;51.978;5.330;2023-07-20T12:21:41;21.40;;;19.60;;
14187;SDS011;7175;51.978;5.330;2023-07-20T12:24:10;21.10;;;19.40;;
14187;SDS011;7175;51.978;5.330;2023-07-20T12:26:40;20.90;;;19.20;;
14187;SDS011;7175;51.978;5.330;2023-07-20T12:29:09;20.43;;;18.73;;
14187;SDS011;7175;51.978;5.330;2023-07-20T12:31:38;20.90;;;19.10;;
14187;SDS011;7175;51.978;5.330;2023-07-20T12:34:08;21.10;;;19.30;;
14187;SDS011;7175;51.978;5.330;2023-07-20T12:36:39;20.20;;;18.50;;
14187;SDS011;7175;51.978;5.330;2023-07-20T12:39:09;20.43;;;18.73;;
14187;SDS011;7175;51.978;5.330;2023-07-20T12:41:38;20.60;;;18.90;;
14187;SDS011;7175;51.978;5.330;2023-07-20T12:44:06;20.97;;;19.23;;
14187;SDS011;7175;51.978;5.330;2023-07-20T12:46:36;20.67;;;18.97;;
14187;SDS011;7175;51.978;5.330;2023-07-20T12:49:05;20.60;;;18.80;;
14187;SDS011;7175;51.978;5.330;2023-07-20T12:51:33;20.87;;;19.07;;
14187;SDS011;7175;51.978;5.330;2023-07-20T12:54:02;20.23;;;18.53;;
14187;SDS011;7175;51.978;5.330;2023-07-20T12:56:30;20.03;;;18.33;;
14187;SDS011;7175;51.978;5.330;2023-07-20T12:59:02;19.73;;;18.03;;
14187;SDS011;7175;51.978;5.330;2023-07-20T13:01:32;19.83;;;18.13;;
14187;SDS011;7175;51.978;5.330;2023-07-20T13:04:02;19.73;;;18.13;;
14187;SDS011;7175;51.978;5.330;2023-07-20T13:06:36;20.27;;;18.67;;
14187;SDS011;7175;51.978;5.330;2023-07-20T13:09:04;20.13;;;18.53;;
14187;SDS011;7175;51.978;5.330;2023-07-20T13:11:32;19.90;;;18.30;;
14187;SDS011;7175;51.978;5.330;2023-07-20T13:14:01;19.60;;;18.00;;
14187;SDS011;7175;51.978;5.330;2023-07-20T13:16:38;20.13;;;18.53;;
14187;SDS011;7175;51.978;5.330;2023-07-20T13:19:08;20.20;;;18.60;;
14187;SDS011;7175;51.978;5.330;2023-07-20T13:21:36;20.37;;;18.77;;
14187;SDS011;7175;51.978;5.330;2023-07-20T13:24:05;20.23;;;18.63;;
14187;SDS011;7175;51.978;5.330;2023-07-20T13:26:37;20.33;;;18.70;;
14187;SDS011;7175;51.978;5.330;2023-07-20T13:29:06;20.20;;;18.60;;
14187;SDS011;7175;51.978;5.330;2023-07-20T13:31:36;20.73;;;19.03;;
14187;SDS011;7175;51.978;5.330;2023-07-20T13:34:09;20.60;;;18.90;;
14187;SDS011;7175;51.978;5.330;2023-07-20T13:36:44;20.53;;;18.90;;
14187;SDS011;7175;51.978;5.330;2023-07-20T13:39:23;20.13;;;18.53;;
14187;SDS011;7175;51.978;5.330;2023-07-20T13:41:53;20.20;;;18.60;;
14187;SDS011;7175;51.978;5.330;2023-07-20T13:44:22;20.17;;;18.47;;
14187;SDS011;7175;51.978;5.330;2023-07-20T13:46:50;20.10;;;18.50;;
14187;SDS011;7175;51.978;5.330;2023-07-20T13:49:40;20.30;;;18.60;;
14187;SDS011;7175;51.978;5.330;2023-07-20T13:52:11;20.30;;;18.60;;
14187;SDS011;7175;51.978;5.330;2023-07-20T13:54:42;19.90;;;18.30;;
14187;SDS011;7175;51.978;5.330;2023-07-20T13:57:13;20.60;;;18.90;;
14187;SDS011;7175;51.978;5.330;2023-07-20T13:59:42;20.20;;;18.60;;
14187;SDS011;7175;51.978;5.330;2023-07-20T14:02:13;20.50;;;18.87;;
14187;SDS011;7175;51.978;5.330;2023-07-20T14:04:50;20.90;;;19.20;;
14187;SDS011;7175;51.978;5.330;2023-07-20T14:07:25;20.30;;;18.60;;
14187;SDS011;7175;51.978;5.330;2023-07-20T14:09:53;19.83;;;18.13;;
14187;SDS011;7175;51.978;5.330;2023-07-20T14:12:24;20.10;;;18.40;;
14187;SDS011;7175;51.978;5.330;2023-07-20T14:14:53;20.40;;;18.70;;
14187;SDS011;7175;51.978;5.330;2023-07-20T14:17:21;19.97;;;18.37;;
14187;SDS011;7175;51.978;5.330;2023-07-20T14:19:52;20.13;;;18.43;;
14187;SDS011;7175;51.978;5.330;2023-07-20T14:22:20;20.13;;;18.53;;
14187;SDS011;7175;51.978;5.330;2023-07-20T14:24:50;20.40;;;18.70;;
14187;SDS011;7175;51.978;5.330;2023-07-20T14:27:18;20.70;;;19.00;;
14187;SDS011;7175;51.978;5.330;2023-07-20T14:29:46;20.13;;;18.43;;
14187;SDS011;7175;51.978;5.330;2023-07-20T14:32:14;20.33;;;18.63;;
14187;SDS011;7175;51.978;5.330;2023-07-20T14:34:42;20.33;;;18.63;;
14187;SDS011;7175;51.978;5.330;2023-07-20T14:37:14;20.77;;;19.07;;
14187;SDS011;7175;51.978;5.330;2023-07-20T14:39:44;20.73;;;19.03;;
14187;SDS011;7175;51.978;5.330;2023-07-20T14:42:15;20.50;;;18.80;;
14187;SDS011;7175;51.978;5.330;2023-07-20T14:44:45;20.50;;;18.80;;
14187;SDS011;7175;51.978;5.330;2023-07-20T14:47:14;20.03;;;18.43;;
14187;SDS011;7175;51.978;5.330;2023-07-20T14:49:42;19.90;;;18.30;;